Time;durP1;ratioP1;P1;durP2;ratioP2;P2;SDS_P1;SDS_P2;PMS_P1;PMS_P2;Temp;Humidity;BMP_temperature;BMP_pressure;BME280_temperature;BME280_humidity;BME280_pressure;Samples;Min_cycle;Max_cycle;Signal;HPM_P1;HPM_P2
2021/12/12 00:01:15;;;;;;;45.67;20.00;;;3.90;99.90;;;;;;5081860;28;20039;-82
2021/12/12 00:03:47;;;;;;;47.20;18.48;;;3.90;99.90;;;;;;5104682;28;20047;-82
2021/12/12 00:06:16;;;;;;;;;;;3.90;99.90;;;;;;5086477;28;20039;-82
2021/12/12 00:08:44;;;;;;;34.35;14.45;;;3.90;99.90;;;;;;5094957;28;19969;-82
2021/12/12 00:11:13;;;;;;;38.00;17.02;;;3.90;99.90;;;;;;5098185;28;20036;-82
2021/12/12 00:13:44;;;;;;;36.30;15.50;;;3.90;99.90;;;;;;5099641;28;20520;-82
2021/12/12 00:16:10;;;;;;;47.58;17.08;;;3.90;99.90;;;;;;5083671;28;20048;-82
2021/12/12 00:18:36;;;;;;;40.95;18.63;;;3.90;99.90;;;;;;5082241;28;20512;-82
2021/12/12 00:21:01;;;;;;;42.35;17.73;;;3.90;99.90;;;;;;5087578;28;20042;-82
2021/12/12 00:23:27;;;;;;;35.92;17.23;;;4.00;99.90;;;;;;5080288;28;20039;-82
2021/12/12 00:25:58;;;;;;;37.92;16.48;;;4.00;99.90;;;;;;5079523;28;20051;-82
2021/12/12 00:28:24;;;;;;;38.00;17.38;;;4.00;99.90;;;;;;5109709;28;20088;-82
2021/12/12 00:30:54;;;;;;;37.42;17.08;;;4.00;99.90;;;;;;5098983;28;20051;-82
2021/12/12 00:33:21;;;;;;;40.70;18.08;;;4.00;99.90;;;;;;5090724;28;20040;-82
2021/12/12 00:35:49;;;;;;;35.53;16.63;;;4.00;99.90;;;;;;5094014;28;20046;-82
2021/12/12 00:38:28;;;;;;;38.30;16.27;;;4.00;99.90;;;;;;5104170;27;20464;-82
2021/12/12 00:40:57;;;;;;;45.60;17.77;;;4.10;99.90;;;;;;5107158;27;20124;-82
2021/12/12 00:43:29;;;;;;;37.28;16.65;;;4.10;99.90;;;;;;5107529;28;20121;-82
2021/12/12 00:45:59;;;;;;;36.63;16.10;;;4.00;99.90;;;;;;5095388;28;20044;-82
2021/12/12 00:48:28;;;;;;;34.67;14.27;;;4.10;99.90;;;;;;5083814;28;20066;-82
2021/12/12 00:50:56;;;;;;;38.78;16.75;;;4.10;99.90;;;;;;5075595;28;20036;-82
2021/12/12 00:53:22;;;;;;;42.28;17.15;;;4.10;99.90;;;;;;5094580;28;20035;-82
2021/12/12 00:55:50;;;;;;;35.10;15.95;;;4.10;99.90;;;;;;5103548;28;20043;-82
2021/12/12 00:58:17;;;;;;;35.65;15.48;;;4.10;99.90;;;;;;5098510;28;20039;-82
2021/12/12 01:01:01;;;;;;;35.63;15.85;;;4.10;99.90;;;;;;5105377;28;20051;-82
2021/12/12 01:03:31;;;;;;;35.30;16.77;;;4.10;99.90;;;;;;5091907;28;20044;-81
2021/12/12 01:05:59;;;;;;;43.15;16.77;;;4.10;99.90;;;;;;5095637;28;20036;-81
2021/12/12 01:08:26;;;;;;;35.08;16.27;;;4.20;99.90;;;;;;5099814;28;20127;-81
2021/12/12 01:11:01;;;;;;;37.78;17.10;;;4.10;99.90;;;;;;5102844;28;20034;-82
2021/12/12 01:13:27;;;;;;;38.15;17.23;;;4.10;99.90;;;;;;5091445;28;20036;-81
2021/12/12 01:15:59;;;;;;;33.05;15.07;;;4.20;99.90;;;;;;5112210;28;20385;-82
2021/12/12 01:18:38;;;;;;;39.80;16.80;;;4.20;99.90;;;;;;5102466;28;20058;-82
2021/12/12 01:21:11;;;;;;;36.55;15.13;;;4.20;99.90;;;;;;5082347;28;20040;-82
2021/12/12 01:23:45;;;;;;;36.05;14.38;;;4.20;99.90;;;;;;5080393;28;20130;-82
2021/12/12 01:26:11;;;;;;;33.08;13.48;;;4.20;99.90;;;;;;5101005;28;20114;-82
2021/12/12 01:28:42;;;;;;;35.20;15.05;;;4.20;99.90;;;;;;5096671;28;20032;-82
2021/12/12 01:31:12;;;;;;;33.75;16.55;;;4.20;99.90;;;;;;5098108;28;20036;-82
2021/12/12 01:33:38;;;;;;;38.15;15.48;;;4.20;99.90;;;;;;5080039;28;20040;-82
2021/12/12 01:36:23;;;;;;;23.55;11.32;;;4.20;99.90;;;;;;5094801;28;20118;-82
2021/12/12 01:38:55;;;;;;;32.15;15.38;;;4.30;99.90;;;;;;5084409;28;20040;-82
2021/12/12 01:41:31;;;;;;;31.85;15.13;;;4.30;99.90;;;;;;5094207;28;20511;-82
2021/12/12 01:44:18;;;;;;;27.17;13.27;;;4.30;99.90;;;;;;5100528;28;20103;-82
2021/12/12 01:46:57;;;;;;;32.65;14.77;;;4.30;99.90;;;;;;5107289;27;20508;-82
2021/12/12 01:49:26;;;;;;;36.78;15.20;;;4.30;99.90;;;;;;5083822;28;20106;-82
2021/12/12 01:51:54;;;;;;;33.47;14.48;;;4.30;99.90;;;;;;5090881;28;20048;-82
2021/12/12 01:54:29;;;;;;;31.45;15.32;;;4.30;99.90;;;;;;5105390;28;20480;-81
2021/12/12 01:56:59;;;;;;;39.05;16.38;;;4.30;99.90;;;;;;5078421;28;20082;-82
2021/12/12 01:59:33;;;;;;;35.20;15.63;;;4.30;99.90;;;;;;5096362;28;20108;-82
2021/12/12 02:02:08;;;;;;;29.05;11.80;;;4.40;99.90;;;;;;5112763;28;20048;-82
2021/12/12 02:04:41;;;;;;;32.17;14.27;;;4.30;99.90;;;;;;5106606;28;20357;-82
2021/12/12 02:07:08;;;;;;;31.70;13.93;;;4.30;99.90;;;;;;5105537;28;20047;-81
2021/12/12 02:09:35;;;;;;;33.55;14.57;;;4.40;99.90;;;;;;5104722;28;20027;-81
2021/12/12 02:12:03;;;;;;;32.53;12.93;;;4.40;99.90;;;;;;5093096;28;20165;-81
2021/12/12 02:14:32;;;;;;;30.50;13.45;;;4.40;99.90;;;;;;5085212;28;20411;-82
2021/12/12 02:17:04;;;;;;;28.48;12.35;;;4.40;99.90;;;;;;5086835;28;20035;-82
2021/12/12 02:19:39;;;;;;;32.65;12.93;;;4.40;99.90;;;;;;5092998;28;20165;-82
2021/12/12 02:36:18;;;;;;;34.10;12.35;;;4.40;99.90;;;;;;5109055;28;20094;-81
2021/12/12 02:38:44;;;;;;;;;;;4.40;99.90;;;;;;5111245;28;20031;-81
2021/12/12 02:41:13;;;;;;;23.10;10.02;;;4.40;99.90;;;;;;5106322;28;20066;-82
2021/12/12 02:43:55;;;;;;;34.63;12.93;;;4.40;99.90;;;;;;5106212;28;20070;-82
2021/12/12 02:46:33;;;;;;;33.22;12.60;;;4.40;99.90;;;;;;5104768;28;20039;-83
2021/12/12 02:49:07;;;;;;;22.92;11.18;;;4.40;99.90;;;;;;5098420;28;20439;-82
2021/12/12 02:51:35;;;;;;;25.27;11.32;;;4.40;99.90;;;;;;5112489;27;20063;-82
2021/12/12 02:54:01;;;;;;;29.55;11.60;;;4.40;99.90;;;;;;5108668;27;20086;-82
2021/12/12 02:56:34;;;;;;;24.17;11.38;;;4.50;99.90;;;;;;5093293;28;20066;-82
2021/12/12 02:59:03;;;;;;;32.83;13.73;;;4.50;99.90;;;;;;5097102;28;20076;-82
2021/12/12 03:01:41;;;;;;;20.50;10.85;;;4.50;99.90;;;;;;5108173;28;20028;-81
2021/12/12 03:04:08;;;;;;;28.30;10.80;;;4.50;99.90;;;;;;5104077;28;20121;-81
2021/12/12 03:06:37;;;;;;;25.75;11.85;;;4.50;99.90;;;;;;5078661;28;20040;-82
2021/12/12 03:09:11;;;;;;;30.38;10.90;;;4.50;99.90;;;;;;5110187;28;20044;-82
2021/12/12 03:11:37;;;;;;;31.08;9.95;;;4.50;99.90;;;;;;5103504;27;20035;-82
2021/12/12 03:14:04;;;;;;;31.40;11.30;;;4.50;99.90;;;;;;5101004;28;20036;-82
2021/12/12 03:16:31;;;;;;;26.23;10.05;;;4.60;99.90;;;;;;5081822;28;20435;-82
2021/12/12 03:18:57;;;;;;;28.70;11.40;;;4.60;99.90;;;;;;5097145;28;20453;-82
2021/12/12 03:21:32;;;;;;;30.08;12.02;;;4.60;99.90;;;;;;5108093;28;20059;-81
2021/12/12 03:24:05;;;;;;;35.05;12.20;;;4.60;99.90;;;;;;5093948;28;20725;-82
2021/12/12 03:26:31;;;;;;;35.15;12.18;;;4.50;99.90;;;;;;5097165;28;20517;-81
2021/12/12 03:28:59;;;;;;;25.88;9.55;;;4.50;99.90;;;;;;5081492;28;20046;-82
2021/12/12 03:31:37;;;;;;;27.17;11.65;;;4.50;99.90;;;;;;5102046;28;20035;-82
2021/12/12 03:34:08;;;;;;;25.58;9.95;;;4.50;99.90;;;;;;5109637;28;20035;-82
2021/12/12 03:36:35;;;;;;;21.98;9.73;;;4.50;99.90;;;;;;5090461;28;20036;-82
2021/12/12 03:39:08;;;;;;;24.75;10.85;;;4.60;99.90;;;;;;5105417;28;20044;-81
2021/12/12 03:41:36;;;;;;;29.15;11.65;;;4.60;99.90;;;;;;5091503;28;20035;-82
2021/12/12 03:44:06;;;;;;;21.90;9.27;;;4.60;99.90;;;;;;5089904;28;20132;-82
2021/12/12 03:46:33;;;;;;;28.48;10.32;;;4.60;99.90;;;;;;5107490;28;20085;-81
2021/12/12 03:48:58;;;;;;;30.45;11.68;;;4.60;99.90;;;;;;5098710;28;20605;-81
2021/12/12 03:51:27;;;;;;;25.77;10.00;;;4.60;99.90;;;;;;5095096;28;20036;-82
2021/12/12 03:53:54;;;;;;;27.27;10.57;;;4.70;99.90;;;;;;5100909;28;20230;-82
2021/12/12 03:56:20;;;;;;;29.05;11.30;;;4.60;99.90;;;;;;5097833;27;20535;-81
2021/12/12 03:58:46;;;;;;;28.15;10.90;;;4.60;99.90;;;;;;5106318;27;20404;-81
2021/12/12 04:01:19;;;;;;;29.90;12.25;;;4.60;99.90;;;;;;5074951;28;20043;-81
2021/12/12 04:03:45;;;;;;;22.02;8.75;;;4.60;99.90;;;;;;5107371;28;20040;-81
2021/12/12 04:06:16;;;;;;;29.15;12.45;;;4.60;99.90;;;;;;5109512;28;20079;-82
2021/12/12 04:08:46;;;;;;;24.52;11.13;;;4.70;99.90;;;;;;5092117;28;20048;-81
2021/12/12 04:11:28;;;;;;;24.17;10.65;;;4.70;99.90;;;;;;5097854;28;20062;-82
2021/12/12 04:13:55;;;;;;;21.23;10.18;;;4.70;99.90;;;;;;5108287;28;20554;-81
2021/12/12 04:16:22;;;;;;;27.73;12.50;;;4.70;99.90;;;;;;5099270;28;20397;-81
2021/12/12 04:18:48;;;;;;;29.27;12.45;;;4.70;99.90;;;;;;5074287;28;20040;-81
2021/12/12 04:21:18;;;;;;;24.35;10.68;;;4.70;99.90;;;;;;5080116;28;20044;-81
2021/12/12 04:23:43;;;;;;;27.27;10.77;;;4.70;99.90;;;;;;5087811;28;20047;-81
2021/12/12 04:26:35;;;;;;;30.02;12.10;;;4.80;99.90;;;;;;5096708;28;20032;-81
2021/12/12 04:29:09;;;;;;;25.48;10.95;;;4.80;99.90;;;;;;5102726;28;20039;-81
2021/12/12 04:31:39;;;;;;;27.48;12.00;;;4.80;99.90;;;;;;5100992;28;20076;-81
2021/12/12 04:34:05;;;;;;;25.92;8.85;;;4.80;99.90;;;;;;5104236;28;20032;-81
2021/12/12 04:36:36;;;;;;;19.35;9.15;;;4.90;99.90;;;;;;5096891;28;20047;-81
2021/12/12 04:39:07;;;;;;;23.25;10.52;;;4.90;99.90;;;;;;5085104;28;20051;-81
2021/12/12 04:41:33;;;;;;;21.70;10.30;;;5.00;99.90;;;;;;5104765;28;20058;-81
2021/12/12 04:43:59;;;;;;;25.60;9.40;;;5.00;99.90;;;;;;5094252;28;20618;-81
2021/12/12 04:46:36;;;;;;;21.25;9.45;;;5.00;99.90;;;;;;5106161;28;20408;-81
2021/12/12 04:52:00;;;;;;;19.80;9.07;;;5.00;99.90;;;;;;5088906;28;20494;-81
2021/12/12 04:54:39;;;;;;;21.33;9.10;;;5.00;99.90;;;;;;5110672;28;20107;-81
2021/12/12 04:57:17;;;;;;;18.17;9.75;;;5.10;99.90;;;;;;5127626;28;20064;-81
2021/12/12 04:59:51;;;;;;;18.48;8.90;;;5.10;99.90;;;;;;5104326;28;20526;-81
2021/12/12 05:02:43;;;;;;;14.40;6.57;;;5.20;99.90;;;;;;5077757;28;20032;-81
2021/12/12 05:05:18;;;;;;;20.02;9.50;;;5.20;99.90;;;;;;5096060;28;20055;-81
2021/12/12 05:07:52;;;;;;;15.75;7.65;;;5.20;99.90;;;;;;5084726;28;20484;-82
2021/12/12 05:10:24;;;;;;;17.17;7.72;;;5.10;99.90;;;;;;5081277;28;20397;-81
2021/12/12 05:13:05;;;;;;;14.55;8.07;;;5.10;99.90;;;;;;5086341;28;20032;-81
2021/12/12 05:15:39;;;;;;;16.08;7.00;;;5.20;99.90;;;;;;5093304;28;20590;-81
2021/12/12 05:18:26;;;;;;;12.55;5.80;;;5.20;99.90;;;;;;5107942;28;20083;-81
2021/12/12 05:20:58;;;;;;;15.40;7.40;;;5.20;99.90;;;;;;5082739;28;20390;-82
2021/12/12 05:23:26;;;;;;;13.93;7.80;;;5.30;99.90;;;;;;5091296;28;20044;-82
2021/12/12 05:25:57;;;;;;;12.68;5.82;;;5.30;99.90;;;;;;5110549;28;20339;-82
2021/12/12 05:28:30;;;;;;;16.85;7.85;;;5.30;99.90;;;;;;5099671;27;20048;-82
2021/12/12 05:30:57;;;;;;;16.75;7.63;;;5.30;99.90;;;;;;5093969;28;20036;-82
2021/12/12 05:33:24;;;;;;;14.50;7.00;;;5.30;99.90;;;;;;5099783;28;20078;-82
2021/12/12 05:35:51;;;;;;;17.52;8.65;;;5.30;99.90;;;;;;5099976;28;20081;-82
2021/12/12 05:38:17;;;;;;;15.88;7.22;;;5.30;99.90;;;;;;5091697;28;20032;-81
2021/12/12 05:40:45;;;;;;;16.08;7.25;;;5.40;99.90;;;;;;5093872;28;20048;-81
2021/12/12 05:43:14;;;;;;;9.52;5.40;;;5.40;99.90;;;;;;5088639;28;20119;-81
2021/12/12 05:45:40;;;;;;;11.05;5.38;;;5.40;99.90;;;;;;5103589;28;20518;-81
2021/12/12 05:48:07;;;;;;;15.73;6.72;;;5.50;99.90;;;;;;5107590;28;20051;-81
2021/12/12 05:50:33;;;;;;;16.42;6.43;;;5.50;99.90;;;;;;5101738;28;20079;-81
2021/12/12 05:52:59;;;;;;;10.95;6.15;;;5.50;99.90;;;;;;5110296;28;20391;-81
2021/12/12 05:55:30;;;;;;;14.68;6.88;;;5.50;99.90;;;;;;5090774;28;20044;-82
2021/12/12 05:57:56;;;;;;;17.15;8.02;;;5.50;99.90;;;;;;5093474;28;20096;-82
2021/12/12 06:00:38;;;;;;;20.75;8.65;;;5.50;99.90;;;;;;5109520;28;20064;-82
2021/12/12 06:03:08;;;;;;;18.30;8.45;;;5.50;99.90;;;;;;5105772;28;20617;-82
2021/12/12 06:05:34;;;;;;;16.27;7.90;;;5.50;99.90;;;;;;5080704;28;20075;-81
2021/12/12 06:08:00;;;;;;;17.02;6.78;;;5.50;99.90;;;;;;5106530;28;20536;-81
2021/12/12 06:10:27;;;;;;;14.55;6.95;;;5.60;99.90;;;;;;5124670;27;20035;-81
2021/12/12 06:12:54;;;;;;;15.52;7.40;;;5.60;99.90;;;;;;5088741;28;20078;-81
2021/12/12 06:15:23;;;;;;;9.18;5.10;;;5.60;99.90;;;;;;5099372;28;20035;-81
2021/12/12 06:17:50;;;;;;;14.45;7.05;;;5.70;99.90;;;;;;5106854;28;20050;-81
2021/12/12 06:20:17;;;;;;;18.02;8.82;;;5.80;99.90;;;;;;5089319;28;20111;-81
2021/12/12 06:22:44;;;;;;;15.05;6.85;;;5.80;99.90;;;;;;5101158;28;20035;-82
2021/12/12 06:25:10;;;;;;;16.60;8.35;;;5.80;99.90;;;;;;5108869;28;20051;-82
2021/12/12 06:27:37;;;;;;;17.77;7.45;;;5.80;99.90;;;;;;5102439;28;20035;-82
2021/12/12 06:30:06;;;;;;;15.60;8.15;;;5.80;99.90;;;;;;5104132;28;20035;-82
2021/12/12 06:32:31;;;;;;;13.80;6.22;;;5.80;99.90;;;;;;5110858;28;20373;-82
2021/12/12 06:34:58;;;;;;;16.70;8.65;;;5.80;99.90;;;;;;5085712;28;20077;-82
2021/12/12 06:37:25;;;;;;;20.25;8.90;;;5.80;99.90;;;;;;5082604;28;20136;-82
2021/12/12 06:39:51;;;;;;;22.83;10.63;;;5.80;99.90;;;;;;5112712;28;20036;-82
2021/12/12 06:42:18;;;;;;;20.10;9.13;;;5.80;99.90;;;;;;5099186;28;20538;-82
2021/12/12 06:44:43;;;;;;;20.48;8.85;;;5.80;99.90;;;;;;5105575;28;20266;-82
2021/12/12 06:47:12;;;;;;;18.55;9.10;;;5.80;99.90;;;;;;5087201;28;20188;-82
2021/12/12 06:49:39;;;;;;;20.48;9.43;;;5.80;99.90;;;;;;5093954;27;20044;-82
2021/12/12 06:52:07;;;;;;;19.60;8.40;;;5.80;99.90;;;;;;5101649;27;20051;-82
2021/12/12 06:54:34;;;;;;;22.35;9.48;;;5.80;99.90;;;;;;5099129;28;20032;-82
2021/12/12 06:57:05;;;;;;;23.90;9.95;;;5.80;99.90;;;;;;5090974;28;20542;-82
2021/12/12 06:59:33;;;;;;;22.42;9.57;;;5.80;99.90;;;;;;5078996;28;20465;-82
2021/12/12 07:02:00;;;;;;;22.65;9.88;;;5.90;99.90;;;;;;5096088;28;20076;-82
2021/12/12 07:04:28;;;;;;;22.33;9.98;;;5.90;99.90;;;;;;5075655;28;20511;-82
2021/12/12 07:06:57;;;;;;;25.45;10.48;;;5.90;99.90;;;;;;5094864;28;20035;-81
2021/12/12 07:09:25;;;;;;;23.48;10.63;;;5.90;99.90;;;;;;5091528;28;20040;-81
2021/12/12 07:11:53;;;;;;;25.70;10.40;;;5.90;99.90;;;;;;5096525;28;20042;-81
2021/12/12 07:14:19;;;;;;;25.40;10.80;;;6.00;99.90;;;;;;5094522;27;20043;-81
2021/12/12 07:16:46;;;;;;;27.35;11.13;;;6.00;99.90;;;;;;5105738;27;20043;-82
2021/12/12 07:19:15;;;;;;;30.38;11.98;;;6.00;99.90;;;;;;5061862;28;20039;-81
2021/12/12 07:21:42;;;;;;;28.20;12.23;;;6.00;99.90;;;;;;5094297;28;20036;-82
2021/12/12 07:24:08;;;;;;;34.35;12.80;;;6.00;99.90;;;;;;5079377;28;20369;-81
2021/12/12 07:26:34;;;;;;;34.60;12.68;;;6.10;99.90;;;;;;5087865;28;20066;-81
2021/12/12 07:29:01;;;;;;;40.65;13.98;;;6.10;99.90;;;;;;5103360;28;20047;-81
2021/12/12 07:31:31;;;;;;;35.92;14.85;;;6.10;99.90;;;;;;5104758;28;20039;-81
2021/12/12 07:34:01;;;;;;;36.00;13.90;;;6.20;99.90;;;;;;5107710;28;20165;-82
2021/12/12 07:36:31;;;;;;;32.83;12.60;;;6.30;99.90;;;;;;5085146;28;20503;-82
2021/12/12 07:39:00;;;;;;;35.42;14.20;;;6.30;99.90;;;;;;5103249;28;20062;-82
2021/12/12 07:41:29;;;;;;;34.03;13.20;;;6.30;99.90;;;;;;5104504;28;20040;-82
2021/12/12 07:43:56;;;;;;;30.50;11.57;;;6.40;99.90;;;;;;5093719;28;20906;-82
2021/12/12 07:46:23;;;;;;;31.55;11.23;;;6.40;99.90;;;;;;5101299;28;20036;-81
2021/12/12 07:48:50;;;;;;;33.83;13.07;;;6.40;99.90;;;;;;5108261;28;20051;-82
2021/12/12 07:51:17;;;;;;;35.65;14.65;;;6.40;99.90;;;;;;5103725;28;20181;-82
2021/12/12 07:53:44;;;;;;;32.45;13.32;;;6.40;99.90;;;;;;5100582;28;20609;-82
2021/12/12 07:56:10;;;;;;;40.78;13.73;;;6.40;99.90;;;;;;5098049;28;20054;-82
2021/12/12 07:58:36;;;;;;;40.88;15.48;;;6.40;99.90;;;;;;5078509;28;20118;-81
2021/12/12 08:01:03;;;;;;;35.40;13.75;;;6.40;99.90;;;;;;5093186;27;20032;-81
2021/12/12 08:03:36;;;;;;;40.88;14.18;;;6.40;99.90;;;;;;5098061;28;20074;-81
2021/12/12 08:06:04;;;;;;;35.75;13.35;;;6.40;99.90;;;;;;5101151;28;20068;-82
2021/12/12 08:08:31;;;;;;;34.58;11.90;;;6.40;99.90;;;;;;5098943;27;20048;-82
2021/12/12 08:10:59;;;;;;;39.00;14.13;;;6.40;99.90;;;;;;5108384;27;20393;-82
2021/12/12 08:13:25;;;;;;;39.15;14.50;;;6.50;99.90;;;;;;5095134;28;20040;-81
2021/12/12 08:15:51;;;;;;;45.13;15.48;;;6.50;99.90;;;;;;5093046;28;20381;-81
2021/12/12 08:18:18;;;;;;;30.00;11.30;;;6.50;99.90;;;;;;5095393;28;20040;-81
2021/12/12 08:20:47;;;;;;;43.22;14.05;;;6.60;99.90;;;;;;5095115;28;20097;-81
2021/12/12 08:23:14;;;;;;;43.10;14.82;;;6.60;99.90;;;;;;5084010;28;20119;-82
2021/12/12 08:25:42;;;;;;;40.08;14.77;;;6.60;99.90;;;;;;5110914;28;20042;-81
2021/12/12 08:28:09;;;;;;;47.40;16.45;;;6.60;99.90;;;;;;5098178;28;20039;-82
2021/12/12 08:30:36;;;;;;;37.70;13.75;;;6.60;99.90;;;;;;5092146;28;20412;-82
2021/12/12 08:33:05;;;;;;;46.88;15.82;;;6.60;99.90;;;;;;5101466;28;20123;-81
2021/12/12 08:35:31;;;;;;;37.55;14.65;;;6.70;99.90;;;;;;5085605;28;20401;-82
2021/12/12 08:37:59;;;;;;;40.95;14.57;;;6.70;99.90;;;;;;5106461;27;20374;-81
2021/12/12 08:40:29;;;;;;;47.45;14.77;;;6.80;99.90;;;;;;5101981;28;21110;-82
2021/12/12 08:42:56;;;;;;;48.78;15.82;;;6.70;99.90;;;;;;5098750;28;20044;-82
2021/12/12 08:45:30;;;;;;;43.35;15.63;;;6.70;99.90;;;;;;5108999;28;20035;-82
2021/12/12 08:47:58;;;;;;;52.17;16.70;;;6.80;99.90;;;;;;5096887;28;20378;-82
2021/12/12 08:50:28;;;;;;;52.22;16.65;;;6.80;99.90;;;;;;5093990;28;20070;-82
2021/12/12 08:52:55;;;;;;;44.08;15.85;;;6.90;99.90;;;;;;5103010;28;20077;-82
2021/12/12 08:55:32;;;;;;;42.88;15.93;;;6.90;99.90;;;;;;5074581;28;20040;-82
2021/12/12 08:58:14;;;;;;;44.35;15.68;;;6.90;99.90;;;;;;5094832;28;20120;-82
2021/12/12 09:00:42;;;;;;;37.87;12.97;;;7.00;99.90;;;;;;5094942;28;20062;-82
2021/12/12 09:03:09;;;;;;;44.67;15.32;;;7.00;99.90;;;;;;5093663;28;20032;-82
2021/12/12 09:05:38;;;;;;;42.78;14.63;;;7.00;99.90;;;;;;5075545;28;20036;-82
2021/12/12 09:08:11;;;;;;;46.92;15.88;;;7.10;99.90;;;;;;5074212;28;20032;-82
2021/12/12 09:10:56;;;;;;;41.95;14.20;;;7.10;99.90;;;;;;5090946;28;20115;-82
2021/12/12 09:13:28;;;;;;;48.03;14.65;;;7.10;99.90;;;;;;5083711;28;20031;-81
2021/12/12 09:16:20;;;;;;;40.70;15.07;;;7.20;99.90;;;;;;5094746;28;20039;-81
2021/12/12 09:18:59;;;;;;;34.40;11.93;;;7.20;99.90;;;;;;5088736;28;20341;-81
2021/12/12 09:21:48;;;;;;;44.33;14.68;;;7.30;99.90;;;;;;5095388;28;20794;-82
2021/12/12 09:24:43;;;;;;;38.60;13.93;;;7.30;99.90;;;;;;5090900;28;20419;-82
2021/12/12 09:27:13;;;;;;;44.42;14.63;;;7.30;99.90;;;;;;5093629;28;20047;-82
2021/12/12 09:29:52;;;;;;;39.90;14.57;;;7.30;99.90;;;;;;5098559;28;20040;-81
2021/12/12 09:32:27;;;;;;;42.63;14.35;;;7.30;99.90;;;;;;5092464;28;20225;-81
2021/12/12 09:35:05;;;;;;;48.25;15.57;;;7.30;99.90;;;;;;5094486;28;20040;-81
2021/12/12 09:37:46;;;;;;;40.80;14.68;;;7.40;99.90;;;;;;5093570;28;20471;-81
2021/12/12 09:40:23;;;;;;;38.15;13.60;;;7.40;99.90;;;;;;5091408;28;20166;-81
2021/12/12 09:43:17;;;;;;;40.90;13.70;;;7.40;99.90;;;;;;5096812;28;20048;-82
2021/12/12 09:46:01;;;;;;;40.83;14.60;;;7.40;99.90;;;;;;5100560;28;20509;-82
2021/12/12 09:52:16;;;;;;;41.22;15.23;;;7.50;99.90;;;;;;5102585;28;20136;-82
2021/12/12 09:55:00;;;;;;;32.72;12.00;;;7.60;99.90;;;;;;5082184;28;20065;-82
2021/12/12 09:57:36;;;;;;;43.80;13.63;;;7.60;99.90;;;;;;5103375;28;20047;-82
2021/12/12 10:00:11;;;;;;;43.75;15.07;;;7.70;99.90;;;;;;5077987;28;20048;-82
2021/12/12 10:03:08;;;;;;;34.55;12.75;;;7.70;99.90;;;;;;5094435;28;20089;-82
2021/12/12 10:05:51;;;;;;;36.58;14.10;;;7.70;99.90;;;;;;5100702;28;20050;-82
2021/12/12 10:08:27;;;;;;;36.17;14.00;;;7.70;99.90;;;;;;5088173;28;20032;-81
2021/12/12 10:11:18;;;;;;;45.50;15.90;;;7.80;99.90;;;;;;5087110;28;20374;-81
2021/12/12 10:13:55;;;;;;;40.85;14.20;;;7.80;99.90;;;;;;5085651;28;20041;-82
2021/12/12 10:16:35;;;;;;;38.67;15.02;;;7.80;99.90;;;;;;5105478;28;20035;-83
2021/12/12 10:19:24;;;;;;;43.17;14.65;;;7.80;99.90;;;;;;5094922;28;20047;-83
2021/12/12 10:21:53;;;;;;;43.15;14.00;;;7.90;99.90;;;;;;5086637;28;20079;-81
2021/12/12 10:24:29;;;;;;;47.85;14.85;;;7.90;99.90;;;;;;5094133;28;20074;-82
2021/12/12 10:27:11;;;;;;;42.72;13.65;;;7.90;99.90;;;;;;5079520;28;20042;-82
2021/12/12 10:29:53;;;;;;;42.60;13.93;;;7.90;99.90;;;;;;5095909;28;20433;-82
2021/12/12 10:32:22;;;;;;;42.17;13.57;;;7.90;99.90;;;;;;5096955;28;20043;-82
2021/12/12 10:35:30;;;;;;;48.25;15.15;;;8.00;99.90;;;;;;5077534;28;20036;-82
2021/12/12 10:38:14;;;;;;;40.47;13.68;;;8.00;99.90;;;;;;5045145;28;20044;-82
2021/12/12 10:40:58;;;;;;;43.40;13.13;;;8.00;99.90;;;;;;5101856;28;20044;-82
2021/12/12 10:43:32;;;;;;;42.47;15.50;;;8.10;99.90;;;;;;5076613;28;20039;-82
2021/12/12 10:46:06;;;;;;;41.97;13.50;;;8.10;99.90;;;;;;5097110;28;20050;-82
2021/12/12 10:49:18;;;;;;;39.67;13.60;;;8.10;99.90;;;;;;5105341;28;20059;-82
2021/12/12 10:51:51;;;;;;;33.60;12.38;;;8.10;99.90;;;;;;5070180;28;20083;-82
2021/12/12 10:54:22;;;;;;;;;;;8.20;99.90;;;;;;5102188;28;20070;-82
2021/12/12 10:56:55;;;;;;;30.38;10.77;;;8.20;99.90;;;;;;5101227;28;19916;-82
2021/12/12 10:59:22;;;;;;;;;;;8.20;99.90;;;;;;5085992;28;20086;-82
2021/12/12 11:01:52;;;;;;;31.85;12.25;;;8.20;99.90;;;;;;5104875;28;20354;-82
2021/12/12 11:04:37;;;;;;;30.98;12.40;;;8.20;99.90;;;;;;5099139;28;20475;-82
2021/12/12 11:07:11;;;;;;;35.05;12.95;;;8.30;99.90;;;;;;5083509;28;20047;-82
2021/12/12 11:09:56;;;;;;;30.40;11.27;;;8.30;99.90;;;;;;5103558;28;20104;-82
2021/12/12 11:12:42;;;;;;;29.55;10.75;;;8.30;99.90;;;;;;5094564;28;20035;-82
2021/12/12 11:15:12;;;;;;;33.28;12.18;;;8.30;99.90;;;;;;5100411;28;20043;-82
2021/12/12 11:18:01;;;;;;;32.15;13.05;;;8.40;99.90;;;;;;5103003;28;20040;-82
2021/12/12 11:20:35;;;;;;;28.77;10.75;;;8.40;99.90;;;;;;5096099;28;20040;-82
2021/12/12 11:23:15;;;;;;;30.73;11.85;;;8.40;99.90;;;;;;5105601;27;20044;-82
2021/12/12 11:26:06;;;;;;;28.63;11.20;;;8.40;99.90;;;;;;5097698;28;20043;-82
2021/12/12 11:28:41;;;;;;;24.88;10.32;;;8.50;99.90;;;;;;5081829;28;20391;-82
2021/12/12 11:31:15;;;;;;;26.65;11.13;;;8.50;99.90;;;;;;5093312;28;20104;-82
2021/12/12 11:33:44;;;;;;;27.90;9.93;;;8.60;99.90;;;;;;5103428;27;20028;-82
2021/12/12 11:36:13;;;;;;;29.85;11.27;;;8.60;99.90;;;;;;5090685;28;20043;-82
2021/12/12 11:38:41;;;;;;;28.25;10.73;;;8.60;99.90;;;;;;5099043;27;20111;-82
2021/12/12 11:41:20;;;;;;;25.92;10.73;;;8.60;99.90;;;;;;5081540;28;20639;-82
2021/12/12 11:44:15;;;;;;;21.20;9.77;;;8.60;99.90;;;;;;5100953;27;20046;-82
2021/12/12 11:46:59;;;;;;;26.65;9.95;;;8.70;99.90;;;;;;5095157;28;20394;-82
2021/12/12 11:49:34;;;;;;;26.08;9.68;;;8.70;99.90;;;;;;5076162;28;20536;-82
2021/12/12 11:52:14;;;;;;;24.67;9.25;;;8.80;99.90;;;;;;5098573;28;20399;-82
2021/12/12 11:54:59;;;;;;;25.63;8.63;;;8.80;99.90;;;;;;5092366;28;20054;-82
2021/12/12 11:57:28;;;;;;;22.98;8.63;;;8.90;99.90;;;;;;5083520;28;20314;-82
2021/12/12 12:00:06;;;;;;;21.63;9.15;;;8.90;99.90;;;;;;5095137;28;20405;-82
2021/12/12 12:02:34;;;;;;;22.70;9.10;;;8.90;99.90;;;;;;5096946;28;20420;-82
2021/12/12 12:05:00;;;;;;;21.52;8.95;;;8.90;99.90;;;;;;5100596;28;20039;-82
2021/12/12 12:07:53;;;;;;;22.40;8.73;;;8.90;99.90;;;;;;5092535;28;20051;-82
2021/12/12 12:10:39;;;;;;;21.35;8.88;;;8.90;99.90;;;;;;5100164;28;20047;-82
2021/12/12 12:13:38;;;;;;;20.65;8.52;;;8.90;99.90;;;;;;5085372;27;20135;-82
2021/12/12 12:16:16;;;;;;;24.63;9.95;;;8.90;99.90;;;;;;5094775;28;20064;-82
2021/12/12 12:18:54;;;;;;;23.88;10.32;;;8.90;99.90;;;;;;5092081;28;20036;-82
2021/12/12 12:21:33;;;;;;;21.23;9.93;;;9.00;99.90;;;;;;5095261;28;20113;-82
2021/12/12 12:26:52;;;;;;;24.15;10.30;;;9.00;99.90;;;;;;5093799;28;20112;-82
2021/12/12 12:29:27;;;;;;;27.88;11.35;;;9.00;99.90;;;;;;5095567;28;20477;-82
2021/12/12 12:32:14;;;;;;;34.03;12.38;;;8.90;99.90;;;;;;5097218;28;20538;-82
2021/12/12 12:35:01;;;;;;;27.92;11.82;;;9.00;99.90;;;;;;5080943;28;20059;-84
2021/12/12 12:38:04;;;;;;;27.75;11.93;;;9.00;99.90;;;;;;5102149;28;20333;-82
2021/12/12 12:40:48;;;;;;;;;;;9.10;99.90;;;;;;5097633;28;20087;-82
2021/12/12 12:43:52;;;;;;;31.17;12.48;;;9.10;99.90;;;;;;5092256;28;19961;-82
2021/12/12 12:46:43;;;;;;;;;;;9.10;99.90;;;;;;5073771;28;20071;-82
2021/12/12 12:49:58;;;;;;;34.03;11.55;;;9.20;99.90;;;;;;5096911;28;19965;-82
2021/12/12 12:52:39;;;;;;;28.67;12.18;;;9.20;99.90;;;;;;5077129;28;20139;-82
2021/12/12 12:55:39;;;;;;;34.28;12.23;;;9.30;99.90;;;;;;5095133;28;20047;-82
2021/12/12 12:58:17;;;;;;;32.92;11.50;;;9.30;99.90;;;;;;5095452;28;20123;-82
2021/12/12 13:00:45;;;;;;;32.10;12.15;;;9.30;99.90;;;;;;5096818;28;20127;-82
2021/12/12 13:03:44;;;;;;;33.92;13.18;;;9.20;99.90;;;;;;5088337;28;20501;-82
2021/12/12 13:06:32;;;;;;;35.28;12.27;;;9.30;99.90;;;;;;5089665;28;20035;-82
2021/12/12 13:09:04;;;;;;;28.77;12.90;;;9.30;99.90;;;;;;5089357;28;20172;-82
2021/12/12 13:11:45;;;;;;;33.63;13.52;;;9.30;99.90;;;;;;5088731;28;20036;-82
2021/12/12 13:14:34;;;;;;;37.38;13.90;;;9.30;99.90;;;;;;5089991;28;20062;-82
2021/12/12 13:17:05;;;;;;;30.02;13.38;;;9.30;99.90;;;;;;5062722;28;20083;-82
2021/12/12 13:19:57;;;;;;;35.10;14.25;;;9.30;99.90;;;;;;5097861;28;20081;-82
2021/12/12 13:22:49;;;;;;;28.70;12.32;;;9.30;99.90;;;;;;5095355;28;20585;-82
2021/12/12 13:25:40;;;;;;;29.55;12.75;;;9.30;99.90;;;;;;5079897;28;20122;-82
2021/12/12 13:28:31;;;;;;;31.00;13.30;;;9.30;99.90;;;;;;5079945;28;20501;-82
2021/12/12 13:31:27;;;;;;;32.72;13.60;;;9.30;99.90;;;;;;5091331;28;20067;-82
2021/12/12 13:33:59;;;;;;;36.55;13.63;;;9.30;99.90;;;;;;5094817;28;20039;-82
2021/12/12 13:36:51;;;;;;;33.57;13.60;;;9.30;99.90;;;;;;5073963;28;20046;-82